sensor_id;sensor_type;location;lat;lon;timestamp;temperature;humidity
63219;DHT22;49320;52.512;13.448;2023-10-08T00:00:06;15.10;93.90
63219;DHT22;49320;52.512;13.448;2023-10-08T00:03:00;15.10;93.80
63219;DHT22;49320;52.512;13.448;2023-10-08T00:05:38;15.10;94.00
63219;DHT22;49320;52.512;13.448;2023-10-08T00:08:09;15.10;94.10
63219;DHT22;49320;52.512;13.448;2023-10-08T00:10:37;15.10;94.10
63219;DHT22;49320;52.512;13.448;2023-10-08T00:13:08;15.10;94.10
63219;DHT22;49320;52.512;13.448;2023-10-08T00:15:36;15.10;94.00
63219;DHT22;49320;52.512;13.448;2023-10-08T00:18:04;15.10;93.70
63219;DHT22;49320;52.512;13.448;2023-10-08T00:20:34;15.10;94.20
63219;DHT22;49320;52.512;13.448;2023-10-08T00:23:10;15.10;94.30
63219;DHT22;49320;52.512;13.448;2023-10-08T00:25:37;15.10;94.30
63219;DHT22;49320;52.512;13.448;2023-10-08T00:28:09;15.00;94.20
63219;DHT22;49320;52.512;13.448;2023-10-08T00:30:40;15.10;94.20
63219;DHT22;49320;52.512;13.448;2023-10-08T00:33:08;15.10;93.80
63219;DHT22;49320;52.512;13.448;2023-10-08T00:35:39;15.00;94.10
63219;DHT22;49320;52.512;13.448;2023-10-08T00:38:08;15.00;93.70
63219;DHT22;49320;52.512;13.448;2023-10-08T00:40:42;15.00;93.60
63219;DHT22;49320;52.512;13.448;2023-10-08T00:43:34;15.00;94.10
63219;DHT22;49320;52.512;13.448;2023-10-08T00:46:03;15.00;94.10
63219;DHT22;49320;52.512;13.448;2023-10-08T00:48:53;15.00;94.10
63219;DHT22;49320;52.512;13.448;2023-10-08T00:51:25;15.00;94.10
63219;DHT22;49320;52.512;13.448;2023-10-08T00:54:03;15.00;94.10
63219;DHT22;49320;52.512;13.448;2023-10-08T00:56:35;14.90;93.80
63219;DHT22;49320;52.512;13.448;2023-10-08T00:59:21;14.90;94.10
63219;DHT22;49320;52.512;13.448;2023-10-08T01:01:50;14.90;93.90
63219;DHT22;49320;52.512;13.448;2023-10-08T01:04:19;14.90;94.10
63219;DHT22;49320;52.512;13.448;2023-10-08T01:06:54;14.90;94.10
63219;DHT22;49320;52.512;13.448;2023-10-08T01:09:26;14.90;94.10
63219;DHT22;49320;52.512;13.448;2023-10-08T01:12:16;14.90;94.10
63219;DHT22;49320;52.512;13.448;2023-10-08T01:14:51;14.90;94.10
63219;DHT22;49320;52.512;13.448;2023-10-08T01:17:22;14.90;94.20
63219;DHT22;49320;52.512;13.448;2023-10-08T01:19:53;14.90;94.20
63219;DHT22;49320;52.512;13.448;2023-10-08T01:22:31;14.90;94.10
63219;DHT22;49320;52.512;13.448;2023-10-08T01:24:59;14.80;94.10
63219;DHT22;49320;52.512;13.448;2023-10-08T01:27:30;14.80;94.10
63219;DHT22;49320;52.512;13.448;2023-10-08T01:30:01;14.80;94.20
63219;DHT22;49320;52.512;13.448;2023-10-08T01:32:38;14.80;93.90
63219;DHT22;49320;52.512;13.448;2023-10-08T01:35:05;14.80;94.30
63219;DHT22;49320;52.512;13.448;2023-10-08T01:37:54;14.80;94.30
63219;DHT22;49320;52.512;13.448;2023-10-08T01:40:23;14.80;94.20
63219;DHT22;49320;52.512;13.448;2023-10-08T01:42:52;14.80;94.30
63219;DHT22;49320;52.512;13.448;2023-10-08T01:45:19;14.80;94.30
63219;DHT22;49320;52.512;13.448;2023-10-08T01:47:46;14.80;94.30
63219;DHT22;49320;52.512;13.448;2023-10-08T01:50:18;14.80;94.30
63219;DHT22;49320;52.512;13.448;2023-10-08T01:52:48;14.80;94.20
63219;DHT22;49320;52.512;13.448;2023-10-08T01:55:15;14.80;94.20
63219;DHT22;49320;52.512;13.448;2023-10-08T01:57:47;14.80;94.30
63219;DHT22;49320;52.512;13.448;2023-10-08T02:00:15;14.80;94.20
63219;DHT22;49320;52.512;13.448;2023-10-08T02:02:50;14.80;94.20
63219;DHT22;49320;52.512;13.448;2023-10-08T02:05:17;14.80;94.10
63219;DHT22;49320;52.512;13.448;2023-10-08T02:07:45;14.80;94.10
63219;DHT22;49320;52.512;13.448;2023-10-08T02:10:12;14.80;94.10
63219;DHT22;49320;52.512;13.448;2023-10-08T02:12:41;14.80;94.10
63219;DHT22;49320;52.512;13.448;2023-10-08T02:15:08;14.80;94.00
63219;DHT22;49320;52.512;13.448;2023-10-08T02:17:38;14.80;94.30
63219;DHT22;49320;52.512;13.448;2023-10-08T02:20:05;14.80;94.20
63219;DHT22;49320;52.512;13.448;2023-10-08T02:22:33;14.80;94.30
63219;DHT22;49320;52.512;13.448;2023-10-08T02:25:00;14.80;94.20
63219;DHT22;49320;52.512;13.448;2023-10-08T02:27:30;14.80;94.20
63219;DHT22;49320;52.512;13.448;2023-10-08T02:29:59;14.80;94.20
63219;DHT22;49320;52.512;13.448;2023-10-08T02:32:28;14.80;93.80
63219;DHT22;49320;52.512;13.448;2023-10-08T02:37:23;14.80;93.80
63219;DHT22;49320;52.512;13.448;2023-10-08T02:39:51;14.80;94.10
63219;DHT22;49320;52.512;13.448;2023-10-08T02:42:18;14.80;94.10
63219;DHT22;49320;52.512;13.448;2023-10-08T02:44:45;14.80;94.20
63219;DHT22;49320;52.512;13.448;2023-10-08T02:47:12;14.80;94.10
63219;DHT22;49320;52.512;13.448;2023-10-08T02:52:07;14.80;93.80
63219;DHT22;49320;52.512;13.448;2023-10-08T02:54:39;14.80;94.10
63219;DHT22;49320;52.512;13.448;2023-10-08T02:57:05;14.80;94.20
63219;DHT22;49320;52.512;13.448;2023-10-08T02:59:37;14.80;94.10
63219;DHT22;49320;52.512;13.448;2023-10-08T03:02:14;14.80;94.10
63219;DHT22;49320;52.512;13.448;2023-10-08T03:04:50;14.80;94.10
63219;DHT22;49320;52.512;13.448;2023-10-08T03:07:19;14.70;94.10
63219;DHT22;49320;52.512;13.448;2023-10-08T03:09:59;14.70;94.10
63219;DHT22;49320;52.512;13.448;2023-10-08T03:12:33;14.70;94.10
63219;DHT22;49320;52.512;13.448;2023-10-08T03:15:01;14.70;94.20
63219;DHT22;49320;52.512;13.448;2023-10-08T03:17:41;14.60;94.10
63219;DHT22;49320;52.512;13.448;2023-10-08T03:20:16;14.70;94.10
63219;DHT22;49320;52.512;13.448;2023-10-08T03:23:02;14.80;94.20
63219;DHT22;49320;52.512;13.448;2023-10-08T03:25:32;14.80;94.10
63219;DHT22;49320;52.512;13.448;2023-10-08T03:28:08;14.70;94.20
63219;DHT22;49320;52.512;13.448;2023-10-08T03:33:19;14.80;94.00
63219;DHT22;49320;52.512;13.448;2023-10-08T03:38:22;14.80;93.90
63219;DHT22;49320;52.512;13.448;2023-10-08T03:40:55;14.80;94.20
63219;DHT22;49320;52.512;13.448;2023-10-08T03:43:33;14.80;94.10
63219;DHT22;49320;52.512;13.448;2023-10-08T03:46:13;14.80;94.00
63219;DHT22;49320;52.512;13.448;2023-10-08T03:48:43;14.80;94.00
63219;DHT22;49320;52.512;13.448;2023-10-08T03:51:12;14.80;94.00
63219;DHT22;49320;52.512;13.448;2023-10-08T03:53:40;14.80;93.60
63219;DHT22;49320;52.512;13.448;2023-10-08T03:56:33;14.80;94.00
63219;DHT22;49320;52.512;13.448;2023-10-08T03:59:03;14.70;94.00
63219;DHT22;49320;52.512;13.448;2023-10-08T04:01:42;14.80;94.00
63219;DHT22;49320;52.512;13.448;2023-10-08T04:04:10;14.80;93.90
63219;DHT22;49320;52.512;13.448;2023-10-08T04:06:42;14.80;93.90
63219;DHT22;49320;52.512;13.448;2023-10-08T04:09:16;14.80;93.90
63219;DHT22;49320;52.512;13.448;2023-10-08T04:11:47;14.80;93.80
63219;DHT22;49320;52.512;13.448;2023-10-08T04:14:30;14.80;93.80
63219;DHT22;49320;52.512;13.448;2023-10-08T04:16:57;14.80;93.70
63219;DHT22;49320;52.512;13.448;2023-10-08T04:19:25;14.80;93.60
63219;DHT22;49320;52.512;13.448;2023-10-08T04:21:56;14.80;93.70
63219;DHT22;49320;52.512;13.448;2023-10-08T04:24:26;14.70;93.60
63219;DHT22;49320;52.512;13.448;2023-10-08T04:27:02;14.70;93.70
63219;DHT22;49320;52.512;13.448;2023-10-08T04:29:32;14.60;93.60
63219;DHT22;49320;52.512;13.448;2023-10-08T04:31:59;14.60;93.20
63219;DHT22;49320;52.512;13.448;2023-10-08T04:34:39;14.60;93.70
63219;DHT22;49320;52.512;13.448;2023-10-08T04:37:13;14.60;93.70
63219;DHT22;49320;52.512;13.448;2023-10-08T04:39:44;14.60;93.70
63219;DHT22;49320;52.512;13.448;2023-10-08T04:42:15;14.60;93.80
63219;DHT22;49320;52.512;13.448;2023-10-08T04:44:52;14.60;93.80
63219;DHT22;49320;52.512;13.448;2023-10-08T04:47:19;14.60;93.80
63219;DHT22;49320;52.512;13.448;2023-10-08T04:49:59;14.60;93.80
63219;DHT22;49320;52.512;13.448;2023-10-08T04:52:26;14.60;93.70
63219;DHT22;49320;52.512;13.448;2023-10-08T04:57:23;14.60;93.40
63219;DHT22;49320;52.512;13.448;2023-10-08T04:59:52;14.50;93.60
63219;DHT22;49320;52.512;13.448;2023-10-08T05:02:24;14.60;93.60
63219;DHT22;49320;52.512;13.448;2023-10-08T05:05:16;14.50;93.70
63219;DHT22;49320;52.512;13.448;2023-10-08T05:07:44;14.50;93.70
63219;DHT22;49320;52.512;13.448;2023-10-08T05:10:11;14.50;93.70
63219;DHT22;49320;52.512;13.448;2023-10-08T05:12:54;14.40;93.70
63219;DHT22;49320;52.512;13.448;2023-10-08T05:15:42;14.50;93.70
63219;DHT22;49320;52.512;13.448;2023-10-08T05:18:16;14.40;93.70
63219;DHT22;49320;52.512;13.448;2023-10-08T05:20:50;14.40;93.70
63219;DHT22;49320;52.512;13.448;2023-10-08T05:23:18;14.30;93.70
63219;DHT22;49320;52.512;13.448;2023-10-08T05:25:53;14.40;93.80
63219;DHT22;49320;52.512;13.448;2023-10-08T05:28:35;14.40;93.70
63219;DHT22;49320;52.512;13.448;2023-10-08T05:31:14;14.30;93.20
63219;DHT22;49320;52.512;13.448;2023-10-08T05:33:41;14.30;93.70
63219;DHT22;49320;52.512;13.448;2023-10-08T05:36:27;14.30;93.80
63219;DHT22;49320;52.512;13.448;2023-10-08T05:39:01;14.30;93.80
63219;DHT22;49320;52.512;13.448;2023-10-08T05:41:45;14.20;93.80
63219;DHT22;49320;52.512;13.448;2023-10-08T05:44:20;14.30;93.80
63219;DHT22;49320;52.512;13.448;2023-10-08T05:46:47;14.30;93.80
63219;DHT22;49320;52.512;13.448;2023-10-08T05:49:23;14.20;93.70
63219;DHT22;49320;52.512;13.448;2023-10-08T05:52:05;14.20;93.70
63219;DHT22;49320;52.512;13.448;2023-10-08T05:54:32;14.10;93.80
63219;DHT22;49320;52.512;13.448;2023-10-08T05:57:05;14.20;93.80
63219;DHT22;49320;52.512;13.448;2023-10-08T05:59:44;14.20;93.80
63219;DHT22;49320;52.512;13.448;2023-10-08T06:02:23;14.20;93.80
63219;DHT22;49320;52.512;13.448;2023-10-08T06:04:57;14.20;93.70
63219;DHT22;49320;52.512;13.448;2023-10-08T06:07:43;14.20;93.70
63219;DHT22;49320;52.512;13.448;2023-10-08T06:10:27;14.20;93.80
63219;DHT22;49320;52.512;13.448;2023-10-08T06:13:06;14.20;93.70
63219;DHT22;49320;52.512;13.448;2023-10-08T06:15:45;14.20;93.60
63219;DHT22;49320;52.512;13.448;2023-10-08T06:18:27;14.20;93.60
63219;DHT22;49320;52.512;13.448;2023-10-08T06:21:06;14.20;93.70
63219;DHT22;49320;52.512;13.448;2023-10-08T06:23:39;14.20;93.60
63219;DHT22;49320;52.512;13.448;2023-10-08T06:26:09;14.20;93.70
63219;DHT22;49320;52.512;13.448;2023-10-08T06:28:37;14.20;94.10
63219;DHT22;49320;52.512;13.448;2023-10-08T06:31:05;14.30;93.40
63219;DHT22;49320;52.512;13.448;2023-10-08T06:33:39;14.30;93.80
63219;DHT22;49320;52.512;13.448;2023-10-08T06:36:07;14.40;93.70
63219;DHT22;49320;52.512;13.448;2023-10-08T06:38:42;14.50;93.70
63219;DHT22;49320;52.512;13.448;2023-10-08T06:41:12;14.50;93.10
63219;DHT22;49320;52.512;13.448;2023-10-08T06:43:44;14.50;93.40
63219;DHT22;49320;52.512;13.448;2023-10-08T06:46:15;14.60;93.20
63219;DHT22;49320;52.512;13.448;2023-10-08T06:48:46;14.60;93.20
63219;DHT22;49320;52.512;13.448;2023-10-08T06:51:13;14.60;93.20
63219;DHT22;49320;52.512;13.448;2023-10-08T06:53:45;14.60;93.10
63219;DHT22;49320;52.512;13.448;2023-10-08T06:56:15;14.70;92.90
63219;DHT22;49320;52.512;13.448;2023-10-08T06:58:42;14.60;92.90
63219;DHT22;49320;52.512;13.448;2023-10-08T07:01:16;14.60;92.70
63219;DHT22;49320;52.512;13.448;2023-10-08T07:03:51;14.60;92.20
63219;DHT22;49320;52.512;13.448;2023-10-08T07:06:19;14.60;92.40
63219;DHT22;49320;52.512;13.448;2023-10-08T07:08:59;14.70;92.30
63219;DHT22;49320;52.512;13.448;2023-10-08T07:11:35;14.60;92.10
63219;DHT22;49320;52.512;13.448;2023-10-08T07:14:02;14.60;91.80
63219;DHT22;49320;52.512;13.448;2023-10-08T07:16:31;14.60;91.90
63219;DHT22;49320;52.512;13.448;2023-10-08T07:18:58;14.50;91.80
63219;DHT22;49320;52.512;13.448;2023-10-08T07:21:30;14.50;91.80
63219;DHT22;49320;52.512;13.448;2023-10-08T07:24:05;14.50;91.80
63219;DHT22;49320;52.512;13.448;2023-10-08T07:26:41;14.50;91.60
63219;DHT22;49320;52.512;13.448;2023-10-08T07:29:14;14.50;91.70
63219;DHT22;49320;52.512;13.448;2023-10-08T07:31:46;14.50;90.80
63219;DHT22;49320;52.512;13.448;2023-10-08T07:34:16;14.50;91.70
63219;DHT22;49320;52.512;13.448;2023-10-08T07:36:46;14.50;91.60
63219;DHT22;49320;52.512;13.448;2023-10-08T07:39:15;14.50;91.50
63219;DHT22;49320;52.512;13.448;2023-10-08T07:42:04;14.50;91.50
63219;DHT22;49320;52.512;13.448;2023-10-08T07:44:35;14.50;91.30
63219;DHT22;49320;52.512;13.448;2023-10-08T07:47:06;14.60;91.20
63219;DHT22;49320;52.512;13.448;2023-10-08T07:52:06;14.60;90.80
63219;DHT22;49320;52.512;13.448;2023-10-08T07:54:33;14.60;90.90
63219;DHT22;49320;52.512;13.448;2023-10-08T07:57:03;14.50;90.80
63219;DHT22;49320;52.512;13.448;2023-10-08T07:59:41;14.60;90.80
63219;DHT22;49320;52.512;13.448;2023-10-08T08:02:14;14.60;90.50
63219;DHT22;49320;52.512;13.448;2023-10-08T08:04:44;14.60;90.80
63219;DHT22;49320;52.512;13.448;2023-10-08T08:07:17;14.60;90.70
63219;DHT22;49320;52.512;13.448;2023-10-08T08:09:46;14.70;90.70
63219;DHT22;49320;52.512;13.448;2023-10-08T08:12:19;14.70;90.20
63219;DHT22;49320;52.512;13.448;2023-10-08T08:14:49;14.70;90.40
63219;DHT22;49320;52.512;13.448;2023-10-08T08:17:21;14.70;90.30
63219;DHT22;49320;52.512;13.448;2023-10-08T08:19:50;14.80;89.80
63219;DHT22;49320;52.512;13.448;2023-10-08T08:22:20;14.80;90.00
63219;DHT22;49320;52.512;13.448;2023-10-08T08:27:23;14.80;89.20
63219;DHT22;49320;52.512;13.448;2023-10-08T08:29:51;14.80;89.10
63219;DHT22;49320;52.512;13.448;2023-10-08T08:32:23;14.90;86.10
63219;DHT22;49320;52.512;13.448;2023-10-08T08:34:50;14.90;88.70
63219;DHT22;49320;52.512;13.448;2023-10-08T08:37:17;15.00;88.70
63219;DHT22;49320;52.512;13.448;2023-10-08T08:39:44;15.00;88.30
63219;DHT22;49320;52.512;13.448;2023-10-08T08:42:12;15.10;88.10
63219;DHT22;49320;52.512;13.448;2023-10-08T08:44:43;15.00;88.00
63219;DHT22;49320;52.512;13.448;2023-10-08T08:47:14;15.10;86.10
63219;DHT22;49320;52.512;13.448;2023-10-08T08:49:45;15.00;85.60
63219;DHT22;49320;52.512;13.448;2023-10-08T08:52:12;15.20;85.60
63219;DHT22;49320;52.512;13.448;2023-10-08T08:54:42;15.20;84.90
63219;DHT22;49320;52.512;13.448;2023-10-08T08:57:10;15.20;83.50
63219;DHT22;49320;52.512;13.448;2023-10-08T08:59:52;15.20;83.70
63219;DHT22;49320;52.512;13.448;2023-10-08T09:02:20;15.20;80.50
63219;DHT22;49320;52.512;13.448;2023-10-08T09:04:48;15.30;82.60
63219;DHT22;49320;52.512;13.448;2023-10-08T09:07:21;15.30;81.60
63219;DHT22;49320;52.512;13.448;2023-10-08T09:09:48;15.30;82.40
63219;DHT22;49320;52.512;13.448;2023-10-08T09:12:17;15.30;82.20
63219;DHT22;49320;52.512;13.448;2023-10-08T09:14:44;15.40;81.70
63219;DHT22;49320;52.512;13.448;2023-10-08T09:17:13;15.40;80.60
63219;DHT22;49320;52.512;13.448;2023-10-08T09:19:41;15.40;79.40
63219;DHT22;49320;52.512;13.448;2023-10-08T09:22:12;15.50;79.00
63219;DHT22;49320;52.512;13.448;2023-10-08T09:24:40;15.50;77.40
63219;DHT22;49320;52.512;13.448;2023-10-08T09:27:11;15.50;77.30
63219;DHT22;49320;52.512;13.448;2023-10-08T09:29:42;15.50;76.30
63219;DHT22;49320;52.512;13.448;2023-10-08T09:32:11;15.50;73.50
63219;DHT22;49320;52.512;13.448;2023-10-08T09:34:40;15.50;76.30
63219;DHT22;49320;52.512;13.448;2023-10-08T09:37:09;15.60;76.80
63219;DHT22;49320;52.512;13.448;2023-10-08T09:39:37;15.60;76.40
63219;DHT22;49320;52.512;13.448;2023-10-08T09:42:07;15.60;76.10
63219;DHT22;49320;52.512;13.448;2023-10-08T09:44:38;15.70;76.00
63219;DHT22;49320;52.512;13.448;2023-10-08T09:47:08;15.70;75.40
63219;DHT22;49320;52.512;13.448;2023-10-08T09:49:45;15.70;75.00
63219;DHT22;49320;52.512;13.448;2023-10-08T09:52:29;15.80;73.80
63219;DHT22;49320;52.512;13.448;2023-10-08T09:55:08;15.80;72.80
63219;DHT22;49320;52.512;13.448;2023-10-08T09:57:39;15.80;73.00
63219;DHT22;49320;52.512;13.448;2023-10-08T10:00:07;15.90;72.50
63219;DHT22;49320;52.512;13.448;2023-10-08T10:02:57;15.90;73.00
63219;DHT22;49320;52.512;13.448;2023-10-08T10:05:32;15.90;72.50
63219;DHT22;49320;52.512;13.448;2023-10-08T10:08:03;15.90;71.60
63219;DHT22;49320;52.512;13.448;2023-10-08T10:10:37;16.00;72.10
63219;DHT22;49320;52.512;13.448;2023-10-08T10:13:06;16.00;71.70
63219;DHT22;49320;52.512;13.448;2023-10-08T10:15:42;16.00;71.30
63219;DHT22;49320;52.512;13.448;2023-10-08T10:18:27;16.10;70.50
63219;DHT22;49320;52.512;13.448;2023-10-08T10:21:00;16.10;69.60
63219;DHT22;49320;52.512;13.448;2023-10-08T10:23:48;16.10;68.60
63219;DHT22;49320;52.512;13.448;2023-10-08T10:26:25;16.10;68.20
63219;DHT22;49320;52.512;13.448;2023-10-08T10:31:39;16.20;65.90
63219;DHT22;49320;52.512;13.448;2023-10-08T10:34:14;16.20;67.30
63219;DHT22;49320;52.512;13.448;2023-10-08T10:36:46;16.20;66.90
63219;DHT22;49320;52.512;13.448;2023-10-08T10:39:21;16.30;66.50
63219;DHT22;49320;52.512;13.448;2023-10-08T10:42:00;16.30;65.90
63219;DHT22;49320;52.512;13.448;2023-10-08T10:44:29;16.30;65.30
63219;DHT22;49320;52.512;13.448;2023-10-08T10:46:59;16.30;65.50
63219;DHT22;49320;52.512;13.448;2023-10-08T10:49:49;16.40;64.20
63219;DHT22;49320;52.512;13.448;2023-10-08T10:52:24;16.40;64.70
63219;DHT22;49320;52.512;13.448;2023-10-08T10:55:19;16.40;64.50
63219;DHT22;49320;52.512;13.448;2023-10-08T10:57:58;16.40;64.40
63219;DHT22;49320;52.512;13.448;2023-10-08T11:00:42;16.50;64.70
63219;DHT22;49320;52.512;13.448;2023-10-08T11:05:44;16.60;63.20
63219;DHT22;49320;52.512;13.448;2023-10-08T11:08:15;16.60;61.20
63219;DHT22;49320;52.512;13.448;2023-10-08T11:10:46;16.60;63.00
63219;DHT22;49320;52.512;13.448;2023-10-08T11:13:25;16.70;63.00
63219;DHT22;49320;52.512;13.448;2023-10-08T11:15:55;16.70;63.80
63219;DHT22;49320;52.512;13.448;2023-10-08T11:18:26;16.80;63.40
63219;DHT22;49320;52.512;13.448;2023-10-08T11:21:09;16.80;61.30
63219;DHT22;49320;52.512;13.448;2023-10-08T11:23:45;16.80;60.10
63219;DHT22;49320;52.512;13.448;2023-10-08T11:26:20;16.80;60.90
63219;DHT22;49320;52.512;13.448;2023-10-08T11:28:59;16.80;61.10
63219;DHT22;49320;52.512;13.448;2023-10-08T11:31:30;16.90;61.50
63219;DHT22;49320;52.512;13.448;2023-10-08T11:34:02;16.90;61.40
63219;DHT22;49320;52.512;13.448;2023-10-08T11:36:37;16.90;60.80
63219;DHT22;49320;52.512;13.448;2023-10-08T11:41:59;17.00;60.20
63219;DHT22;49320;52.512;13.448;2023-10-08T11:44:32;17.00;59.70
63219;DHT22;49320;52.512;13.448;2023-10-08T11:47:04;17.10;59.70
63219;DHT22;49320;52.512;13.448;2023-10-08T11:49:40;17.10;59.60
63219;DHT22;49320;52.512;13.448;2023-10-08T11:52:38;17.20;59.60
63219;DHT22;49320;52.512;13.448;2023-10-08T11:55:09;17.20;60.10
63219;DHT22;49320;52.512;13.448;2023-10-08T11:57:36;17.20;59.50
63219;DHT22;49320;52.512;13.448;2023-10-08T12:00:12;17.30;58.10
63219;DHT22;49320;52.512;13.448;2023-10-08T12:02:58;17.30;58.90
63219;DHT22;49320;52.512;13.448;2023-10-08T12:05:28;17.30;59.00
63219;DHT22;49320;52.512;13.448;2023-10-08T12:07:56;17.40;59.00
63219;DHT22;49320;52.512;13.448;2023-10-08T12:10:25;17.50;58.50
63219;DHT22;49320;52.512;13.448;2023-10-08T12:12:52;19.30;58.90
63219;DHT22;49320;52.512;13.448;2023-10-08T12:15:24;17.60;58.60
63219;DHT22;49320;52.512;13.448;2023-10-08T12:20:47;17.80;56.60
63219;DHT22;49320;52.512;13.448;2023-10-08T12:23:14;17.90;57.90
63219;DHT22;49320;52.512;13.448;2023-10-08T12:26:00;17.90;57.50
63219;DHT22;49320;52.512;13.448;2023-10-08T12:28:29;18.00;58.00
63219;DHT22;49320;52.512;13.448;2023-10-08T12:30:56;18.10;56.20
63219;DHT22;49320;52.512;13.448;2023-10-08T12:38:22;18.10;57.30
63219;DHT22;49320;52.512;13.448;2023-10-08T12:40:49;18.10;57.40
63219;DHT22;49320;52.512;13.448;2023-10-08T12:43:20;18.20;57.40
63219;DHT22;49320;52.512;13.448;2023-10-08T12:45:49;18.20;55.90
63219;DHT22;49320;52.512;13.448;2023-10-08T12:48:25;18.20;56.30
63219;DHT22;49320;52.512;13.448;2023-10-08T12:50:54;18.20;56.60
63219;DHT22;49320;52.512;13.448;2023-10-08T12:53:26;18.20;54.30
63219;DHT22;49320;52.512;13.448;2023-10-08T12:56:04;18.10;56.90
63219;DHT22;49320;52.512;13.448;2023-10-08T12:58:36;18.10;56.40
63219;DHT22;49320;52.512;13.448;2023-10-08T13:01:08;18.10;56.40
63219;DHT22;49320;52.512;13.448;2023-10-08T13:03:37;18.10;56.80
63219;DHT22;49320;52.512;13.448;2023-10-08T13:06:16;18.20;56.80
63219;DHT22;49320;52.512;13.448;2023-10-08T13:08:56;18.30;56.90
63219;DHT22;49320;52.512;13.448;2023-10-08T13:11:27;18.30;57.20
63219;DHT22;49320;52.512;13.448;2023-10-08T13:13:57;18.30;56.60
63219;DHT22;49320;52.512;13.448;2023-10-08T13:16:26;18.30;56.30
63219;DHT22;49320;52.512;13.448;2023-10-08T13:18:58;18.40;56.40
63219;DHT22;49320;52.512;13.448;2023-10-08T13:21:26;18.40;55.40
63219;DHT22;49320;52.512;13.448;2023-10-08T13:23:55;18.30;54.90
63219;DHT22;49320;52.512;13.448;2023-10-08T13:26:29;18.30;55.60
63219;DHT22;49320;52.512;13.448;2023-10-08T13:28:58;18.20;55.80
63219;DHT22;49320;52.512;13.448;2023-10-08T13:31:26;18.20;56.00
63219;DHT22;49320;52.512;13.448;2023-10-08T13:33:53;18.30;55.90
63219;DHT22;49320;52.512;13.448;2023-10-08T13:36:24;18.30;55.90
63219;DHT22;49320;52.512;13.448;2023-10-08T13:38:51;18.20;55.50
63219;DHT22;49320;52.512;13.448;2023-10-08T13:41:18;18.20;55.50
63219;DHT22;49320;52.512;13.448;2023-10-08T13:43:50;18.20;55.40
63219;DHT22;49320;52.512;13.448;2023-10-08T13:46:20;18.30;55.50
63219;DHT22;49320;52.512;13.448;2023-10-08T13:48:49;18.20;54.70
63219;DHT22;49320;52.512;13.448;2023-10-08T13:51:18;18.20;55.10
63219;DHT22;49320;52.512;13.448;2023-10-08T13:53:51;18.30;55.50
63219;DHT22;49320;52.512;13.448;2023-10-08T13:56:20;18.20;53.50
63219;DHT22;49320;52.512;13.448;2023-10-08T13:58:52;18.20;55.40
63219;DHT22;49320;52.512;13.448;2023-10-08T14:01:24;18.20;55.20
63219;DHT22;49320;52.512;13.448;2023-10-08T14:03:52;18.20;55.80
63219;DHT22;49320;52.512;13.448;2023-10-08T14:06:20;18.10;55.00
63219;DHT22;49320;52.512;13.448;2023-10-08T14:11:19;18.10;54.50
63219;DHT22;49320;52.512;13.448;2023-10-08T14:13:51;18.10;55.20
63219;DHT22;49320;52.512;13.448;2023-10-08T14:16:21;18.00;55.00
63219;DHT22;49320;52.512;13.448;2023-10-08T14:18:55;18.00;55.20
63219;DHT22;49320;52.512;13.448;2023-10-08T14:21:26;18.00;54.50
63219;DHT22;49320;52.512;13.448;2023-10-08T14:24:03;18.00;55.10
63219;DHT22;49320;52.512;13.448;2023-10-08T14:26:33;18.00;55.00
63219;DHT22;49320;52.512;13.448;2023-10-08T14:29:04;18.00;55.00
63219;DHT22;49320;52.512;13.448;2023-10-08T14:31:44;18.00;54.80
63219;DHT22;49320;52.512;13.448;2023-10-08T14:34:16;18.00;54.80
63219;DHT22;49320;52.512;13.448;2023-10-08T14:36:44;18.00;55.20
63219;DHT22;49320;52.512;13.448;2023-10-08T14:39:31;18.00;54.80
63219;DHT22;49320;52.512;13.448;2023-10-08T14:42:17;18.00;54.80
63219;DHT22;49320;52.512;13.448;2023-10-08T14:45:04;17.90;54.80
63219;DHT22;49320;52.512;13.448;2023-10-08T14:47:38;17.90;55.30
63219;DHT22;49320;52.512;13.448;2023-10-08T14:50:06;17.90;54.60
63219;DHT22;49320;52.512;13.448;2023-10-08T14:52:44;17.80;55.10
63219;DHT22;49320;52.512;13.448;2023-10-08T14:55:11;17.80;55.10
63219;DHT22;49320;52.512;13.448;2023-10-08T14:57:39;17.80;55.30
63219;DHT22;49320;52.512;13.448;2023-10-08T15:00:09;17.80;54.80
63219;DHT22;49320;52.512;13.448;2023-10-08T15:02:39;17.80;55.00
63219;DHT22;49320;52.512;13.448;2023-10-08T15:05:06;17.80;54.90
63219;DHT22;49320;52.512;13.448;2023-10-08T15:07:34;17.80;55.10
63219;DHT22;49320;52.512;13.448;2023-10-08T15:10:02;17.80;55.10
63219;DHT22;49320;52.512;13.448;2023-10-08T15:12:29;17.80;55.20
63219;DHT22;49320;52.512;13.448;2023-10-08T15:15:01;17.80;54.50
63219;DHT22;49320;52.512;13.448;2023-10-08T15:17:43;17.80;54.90
63219;DHT22;49320;52.512;13.448;2023-10-08T15:20:12;17.80;54.90
63219;DHT22;49320;52.512;13.448;2023-10-08T15:22:44;17.80;55.10
63219;DHT22;49320;52.512;13.448;2023-10-08T15:25:14;17.80;55.00
63219;DHT22;49320;52.512;13.448;2023-10-08T15:27:46;17.80;54.20
63219;DHT22;49320;52.512;13.448;2023-10-08T15:30:17;17.80;53.50
63219;DHT22;49320;52.512;13.448;2023-10-08T15:32:48;17.80;55.10
63219;DHT22;49320;52.512;13.448;2023-10-08T15:35:18;17.80;54.90
63219;DHT22;49320;52.512;13.448;2023-10-08T15:37:51;17.80;55.00
63219;DHT22;49320;52.512;13.448;2023-10-08T15:40:19;17.80;54.90
63219;DHT22;49320;52.512;13.448;2023-10-08T15:42:54;17.80;54.90
63219;DHT22;49320;52.512;13.448;2023-10-08T15:45:24;17.60;54.40
63219;DHT22;49320;52.512;13.448;2023-10-08T15:47:52;17.70;54.80
63219;DHT22;49320;52.512;13.448;2023-10-08T15:50:20;17.70;54.80
63219;DHT22;49320;52.512;13.448;2023-10-08T15:52:51;17.70;54.80
63219;DHT22;49320;52.512;13.448;2023-10-08T15:55:18;17.70;54.90
63219;DHT22;49320;52.512;13.448;2023-10-08T15:57:48;17.70;54.80
63219;DHT22;49320;52.512;13.448;2023-10-08T16:00:16;17.60;54.00
63219;DHT22;49320;52.512;13.448;2023-10-08T16:02:44;17.60;55.00
63219;DHT22;49320;52.512;13.448;2023-10-08T16:05:13;17.70;54.90
63219;DHT22;49320;52.512;13.448;2023-10-08T16:07:41;17.60;54.80
63219;DHT22;49320;52.512;13.448;2023-10-08T16:10:09;17.60;54.20
63219;DHT22;49320;52.512;13.448;2023-10-08T16:12:36;17.60;54.80
63219;DHT22;49320;52.512;13.448;2023-10-08T16:15:04;17.50;55.00
63219;DHT22;49320;52.512;13.448;2023-10-08T16:17:32;17.50;54.80
63219;DHT22;49320;52.512;13.448;2023-10-08T16:19:59;17.50;54.70
63219;DHT22;49320;52.512;13.448;2023-10-08T16:22:35;17.40;54.40